Beogradi, Serbia

09:48 PM CEST on gusht 29, 2016 (GMT +0200)
Netiks Zvezdara | | Change Station

Elev 545 ft 44.80 °N, 20.49 °E | Updated 3 minutes ago

Clear
i kthjellet
73.2 °F
Feels Like 77 °F
N
0.0
Era e paqendrueshme Era from JP
Gusts 0.0 mph

Sot
High -- | Low -- °F
--% Chance of Precip.
Yesterday
High -- | Low -- °F
Precip. -- ne
Presioni 29.98 ne
Visioni -9999.0 milje
Clouds
Indeksi I Nxehtesise 77 °F
Pika E Veses 55 °F
Lageshtira E ajrit 53%
Rainfall 0.00 ne
Snow Depth Not available.
5:57 AM 7:19 PM
Waning Crescent, 7% visible
METAR LYBE 291930Z VRB02KT CAVOK 24/14 Q1015 NOSIG
Presioni 29.98 ne
Visioni -9999.0 milje
Clouds
Indeksi I Nxehtesise 77 °F
Pika E Veses 55 °F
Lageshtira E ajrit 53%
Rainfall 0.00 ne
Snow Depth Not available.
5:57 AM 7:19 PM
Waning Crescent, 7% visible
METAR LYBE 291930Z VRB02KT CAVOK 24/14 Q1015 NOSIG

10-Day Weather Forecast

×

Almanac

Astronomy

Aug. 29, 2016 Rise Set
Actual Time
Civil Twilight
Nautical Twilight
Astronomical Twilight
Moon
Length Of Visible Light
Length of Day
Tomorrow will be .
, % of the Moon is Illuminated

Today's Extremes

Country Highs Country Lows

Community

WunderPhotos

Upload Photos

1,935,642 photos uploaded!

WunderBlog® & News

Nearby

Air Quality

  Air Quality AQ Index Pollutant
Not available.

Snow Depth

Station Depth Elevation

Earthquake Activity

City Distance Mag. Time & Date
Minimum magnitude displayed is 2.5.

Coastal Water Temperatures

Vend Temperatura

Stations

Nearby Weather Stations

Station Location Temp Ftohtesia E erses Pika E Veses Lageshtira E ajrit Era Precip. Elev te freskuara(Te Dhenat) Type